createdAt,value
2017-11-30T00:00:14.756Z,2.48
2017-11-30T00:10:14.658Z,2.41
2017-11-30T00:20:14.649Z,2.38
2017-11-30T00:30:14.689Z,2.64
2017-11-30T00:40:14.646Z,2.49
2017-11-30T00:50:14.725Z,2.59
2017-11-30T01:00:14.645Z,2.59
2017-11-30T01:10:14.748Z,2.69
2017-11-30T01:20:14.717Z,2.64
2017-11-30T01:30:14.733Z,2.66
2017-11-30T01:40:14.704Z,2.61
2017-11-30T01:50:14.785Z,2.79
2017-11-30T02:00:14.719Z,2.87
2017-11-30T02:10:14.695Z,2.84
2017-11-30T02:20:14.707Z,2.69
2017-11-30T02:30:14.806Z,2.79
2017-11-30T02:40:14.752Z,2.87
2017-11-30T02:50:14.824Z,2.92
2017-11-30T03:00:14.791Z,2.85
2017-11-30T03:10:14.753Z,2.7
2017-11-30T03:20:14.794Z,2.79
2017-11-30T03:30:14.745Z,2.85
2017-11-30T03:40:14.828Z,2.79
2017-11-30T03:50:14.805Z,2.67
2017-11-30T04:00:14.861Z,2.55
2017-11-30T04:10:14.833Z,2.46
2017-11-30T04:20:14.882Z,2.58
2017-11-30T04:30:14.806Z,2.44
2017-11-30T04:40:14.910Z,2.52
2017-11-30T04:50:14.845Z,2.38
2017-11-30T05:00:14.909Z,2.53
2017-11-30T05:10:14.892Z,2.52
2017-11-30T05:20:14.849Z,2.4
2017-11-30T05:30:14.854Z,2.41
2017-11-30T05:40:14.860Z,2.46
2017-11-30T05:50:14.905Z,2.49
2017-11-30T06:00:14.857Z,2.58
2017-11-30T06:10:14.960Z,2.58
2017-11-30T06:20:14.939Z,2.58
2017-11-30T06:30:14.883Z,2.71
2017-11-30T06:40:14.947Z,2.71
2017-11-30T06:50:15.029Z,2.71
2017-11-30T07:00:15.032Z,2.77
2017-11-30T07:10:14.897Z,2.74
2017-11-30T07:20:14.922Z,2.85
2017-11-30T07:30:14.975Z,2.98
2017-11-30T07:40:14.886Z,2.98
2017-11-30T07:50:14.915Z,3.02
2017-11-30T08:00:14.913Z,3.02
2017-11-30T08:10:14.919Z,3.23
2017-11-30T08:20:14.913Z,3.34
2017-11-30T08:30:14.952Z,3.46
2017-11-30T08:40:14.960Z,3.9
2017-11-30T08:50:14.973Z,4.07
2017-11-30T09:00:15.012Z,4.42
2017-11-30T09:10:14.994Z,4.58
2017-11-30T09:20:14.986Z,4.69
2017-11-30T09:30:14.998Z,4.5
2017-11-30T09:40:15.068Z,4.62
2017-11-30T09:50:15.020Z,4.76
2017-11-30T10:00:15.003Z,4.95
2017-11-30T10:10:15.021Z,4.95
2017-11-30T10:20:15.037Z,4.7
2017-11-30T10:30:15.103Z,4.79
2017-11-30T10:40:15.055Z,4.64
2017-11-30T10:50:15.047Z,4.72
2017-11-30T11:00:15.021Z,4.92
2017-11-30T11:10:15.082Z,5.05
2017-11-30T11:20:15.111Z,5.2
2017-11-30T11:30:15.109Z,5.16
2017-11-30T11:40:15.117Z,5.4
2017-11-30T11:50:15.102Z,5.53
2017-11-30T12:00:15.109Z,5.7
2017-11-30T12:10:15.148Z,5.89
2017-11-30T12:20:15.174Z,5.6
2017-11-30T12:30:15.123Z,5.46
2017-11-30T12:40:15.149Z,5.6
2017-11-30T12:50:15.229Z,5.88
2017-11-30T13:00:15.165Z,5.92
2017-11-30T13:10:15.212Z,6.16
2017-11-30T13:20:15.168Z,5.82
2017-11-30T13:30:15.295Z,5.82
2017-11-30T13:40:15.373Z,5.75
2017-11-30T13:50:15.233Z,5.53
2017-11-30T14:00:15.291Z,5.71
2017-11-30T14:10:15.239Z,5.71
2017-11-30T14:20:15.311Z,5.73
2017-11-30T14:30:15.387Z,5.64
2017-11-30T14:40:15.356Z,5.53
2017-11-30T14:50:15.337Z,5.48
2017-11-30T15:00:15.272Z,5.41
2017-11-30T15:10:15.281Z,5.37
2017-11-30T15:20:15.298Z,5.35
2017-11-30T15:30:15.359Z,5.22
2017-11-30T15:40:15.351Z,5.01
2017-11-30T15:50:15.436Z,4.99
2017-11-30T16:00:15.480Z,4.89
2017-11-30T16:10:15.541Z,4.8
2017-11-30T16:20:15.382Z,4.55
2017-11-30T16:30:15.459Z,4.19
2017-11-30T16:40:15.325Z,4
2017-11-30T16:50:15.359Z,3.83
2017-11-30T17:00:15.347Z,3.46
2017-11-30T17:10:15.356Z,3.16
2017-11-30T17:20:15.312Z,2.81
2017-11-30T17:30:15.476Z,2.71
2017-11-30T17:40:15.646Z,2.44
2017-11-30T17:50:15.466Z,2.52
2017-11-30T18:00:15.621Z,2.55
2017-11-30T18:10:15.496Z,2.79
2017-11-30T18:20:15.607Z,3.12
2017-11-30T18:30:15.447Z,3.34
2017-11-30T18:40:15.614Z,3.57
2017-11-30T18:50:15.490Z,3.61
2017-11-30T19:00:15.579Z,3.64
2017-11-30T19:10:15.518Z,3.79
2017-11-30T19:20:15.546Z,3.86
2017-11-30T19:30:15.547Z,3.88
2017-11-30T19:40:15.661Z,3.88
2017-11-30T19:50:15.778Z,4.07
2017-11-30T20:00:16.207Z,4.4
2017-11-30T20:10:15.901Z,4.29
2017-11-30T20:20:15.646Z,4.21
2017-11-30T20:30:15.889Z,4.28
2017-11-30T20:40:15.860Z,4.08
2017-11-30T20:50:15.604Z,4.15
2017-11-30T21:00:16.761Z,4.24
2017-11-30T21:10:16.017Z,4.32
2017-11-30T21:20:16.755Z,4.42
2017-11-30T21:30:15.658Z,4.47
2017-11-30T21:40:15.885Z,4.36
2017-11-30T21:50:15.610Z,4.5
2017-11-30T22:00:16.146Z,4.34
2017-11-30T22:10:15.850Z,4.33
2017-11-30T22:20:15.851Z,4.29
2017-11-30T22:30:15.633Z,4.16
2017-11-30T22:40:15.740Z,4.34
2017-11-30T22:50:15.620Z,4.42
2017-11-30T23:00:15.717Z,4.46
2017-11-30T23:10:15.982Z,4.59
2017-11-30T23:20:15.770Z,4.34
2017-11-30T23:30:15.959Z,4.26
2017-11-30T23:40:15.656Z,4.06
2017-11-30T23:50:16.915Z,3.96
